createdAt,value
2023-02-26T00:01:29.105Z,0.80
2023-02-26T00:04:14.897Z,0.13
2023-02-26T00:07:01.102Z,0.15
2023-02-26T00:09:47.088Z,0.30
2023-02-26T00:12:33.256Z,0.10
2023-02-26T00:15:19.555Z,0.10
2023-02-26T00:18:09.610Z,5.10
2023-02-26T00:20:56.298Z,2.17
2023-02-26T00:23:42.394Z,2.72
2023-02-26T00:26:30.702Z,1.98
2023-02-26T00:29:16.933Z,4.60
2023-02-26T00:32:03.599Z,0.60
2023-02-26T00:34:50.212Z,2.22
2023-02-26T00:38:06.841Z,1.33
2023-02-26T00:40:54.807Z,13.80
2023-02-26T00:43:41.283Z,8.45
2023-02-26T00:46:30.016Z,2.20
2023-02-26T00:49:46.876Z,1.17
2023-02-26T00:52:44.821Z,0.10
2023-02-26T00:55:31.443Z,0.57
2023-02-26T00:58:17.155Z,5.85
2023-02-26T01:01:06.279Z,1.85
2023-02-26T01:03:52.499Z,1.10
2023-02-26T01:06:46.185Z,0.32
2023-02-26T01:09:37.523Z,3.83
2023-02-26T01:12:23.552Z,1.02
2023-02-26T01:15:10.257Z,0.32
2023-02-26T01:18:19.084Z,0.47
2023-02-26T01:21:08.022Z,0.10
2023-02-26T01:23:54.189Z,0.57
2023-02-26T01:26:40.484Z,1.17
2023-02-26T01:29:26.520Z,1.15
2023-02-26T01:32:23.480Z,1.00
2023-02-26T01:35:25.144Z,0.50
2023-02-26T01:38:44.935Z,1.30
2023-02-26T01:41:43.416Z,0.10
2023-02-26T01:44:32.702Z,0.15
2023-02-26T01:47:28.107Z,6.85
2023-02-26T01:50:22.460Z,11.15
2023-02-26T01:53:25.796Z,1.02
2023-02-26T01:56:18.616Z,6.57
2023-02-26T01:59:08.623Z,2.17
2023-02-26T02:01:58.442Z,4.10
2023-02-26T02:04:45.071Z,2.15
2023-02-26T02:07:31.280Z,0.10
2023-02-26T02:10:17.748Z,0.63
2023-02-26T02:13:07.688Z,5.70
2023-02-26T02:16:08.660Z,1.20
2023-02-26T02:19:20.474Z,0.75
2023-02-26T02:22:20.414Z,0.65
2023-02-26T02:25:33.693Z,0.50
2023-02-26T02:28:49.531Z,0.20
2023-02-26T02:31:47.229Z,0.65
2023-02-26T02:34:46.085Z,0.80
2023-02-26T02:37:47.990Z,1.77
2023-02-26T02:40:37.974Z,6.88
2023-02-26T02:43:28.543Z,24.65
2023-02-26T02:46:20.845Z,10.43
2023-02-26T02:49:34.267Z,8.57
2023-02-26T02:52:29.259Z,9.65
2023-02-26T02:55:17.702Z,5.90
2023-02-26T02:58:12.165Z,42.58
2023-02-26T03:01:03.032Z,6.93
2023-02-26T03:04:00.868Z,5.68
2023-02-26T03:06:50.396Z,14.80
2023-02-26T03:09:37.699Z,1.55
2023-02-26T03:12:26.695Z,15.85
2023-02-26T03:15:14.004Z,6.38
2023-02-26T03:18:35.531Z,18.48
2023-02-26T03:21:40.298Z,6.22
2023-02-26T03:24:51.504Z,2.28
2023-02-26T03:27:58.029Z,12.65
2023-02-26T03:31:02.862Z,7.35
2023-02-26T03:34:16.087Z,25.83
2023-02-26T03:37:09.226Z,22.05
2023-02-26T03:40:00.276Z,22.25
2023-02-26T03:43:00.627Z,2.55
2023-02-26T03:45:50.786Z,9.20
2023-02-26T03:48:37.253Z,21.17
2023-02-26T03:51:24.568Z,19.88
2023-02-26T03:54:48.430Z,43.85
2023-02-26T03:57:53.600Z,81.25
2023-02-26T04:00:55.708Z,101.38
2023-02-26T04:03:55.608Z,70.63
2023-02-26T04:06:42.678Z,52.35
2023-02-26T04:09:28.866Z,93.32
2023-02-26T04:12:15.335Z,51.27
2023-02-26T04:15:06.953Z,14.10
2023-02-26T04:17:57.528Z,1.23
2023-02-26T04:20:43.293Z,6.27
2023-02-26T04:23:29.674Z,11.27
2023-02-26T04:26:17.086Z,5.27
2023-02-26T04:29:05.391Z,19.53
2023-02-26T04:31:51.718Z,6.73
2023-02-26T04:34:37.676Z,14.93
2023-02-26T04:37:24.487Z,4.33
2023-02-26T04:40:11.538Z,9.97
2023-02-26T04:42:57.642Z,13.47
2023-02-26T04:45:47.093Z,7.57
2023-02-26T04:48:33.203Z,5.63
2023-02-26T04:51:19.466Z,8.87
2023-02-26T04:54:05.462Z,8.17
2023-02-26T04:56:50.932Z,20.27
2023-02-26T04:59:38.608Z,15.23
2023-02-26T05:02:25.657Z,7.97
2023-02-26T05:05:11.561Z,5.80
2023-02-26T05:07:58.116Z,7.60
2023-02-26T05:10:44.185Z,6.00
2023-02-26T05:13:30.666Z,13.93
2023-02-26T05:16:17.255Z,5.13
2023-02-26T05:19:03.412Z,10.90
2023-02-26T05:21:49.472Z,12.53
2023-02-26T05:24:35.457Z,7.93
2023-02-26T05:27:21.658Z,8.10
2023-02-26T05:30:09.074Z,1.50
2023-02-26T05:32:55.699Z,2.30
2023-02-26T05:35:41.739Z,8.83
2023-02-26T05:38:27.409Z,10.93
2023-02-26T05:41:12.781Z,1.93
2023-02-26T05:43:58.450Z,2.83
2023-02-26T05:46:44.270Z,2.57
2023-02-26T05:49:29.911Z,3.33
2023-02-26T05:52:16.125Z,1.83
2023-02-26T05:55:01.711Z,2.10
2023-02-26T05:57:47.917Z,5.27
2023-02-26T06:00:33.962Z,8.63
2023-02-26T06:03:19.722Z,2.27
2023-02-26T06:06:06.094Z,1.90
2023-02-26T06:08:51.654Z,2.17
2023-02-26T06:11:39.657Z,7.87
2023-02-26T06:14:25.718Z,13.03
2023-02-26T06:17:11.656Z,2.20
2023-02-26T06:19:57.906Z,3.63
2023-02-26T06:22:44.441Z,5.27
2023-02-26T06:25:30.001Z,3.53
2023-02-26T06:28:16.206Z,3.17
2023-02-26T06:31:02.277Z,3.67
2023-02-26T06:33:48.147Z,4.35
2023-02-26T06:36:33.608Z,7.80
2023-02-26T06:39:19.195Z,1.83
2023-02-26T06:42:05.251Z,9.13
2023-02-26T06:44:50.795Z,2.20
2023-02-26T06:47:36.606Z,8.60
2023-02-26T06:50:22.181Z,2.80
2023-02-26T06:53:07.912Z,0.40
2023-02-26T06:55:54.229Z,0.73
2023-02-26T06:58:39.985Z,6.47
2023-02-26T07:01:25.751Z,1.27
2023-02-26T07:04:11.664Z,2.43
2023-02-26T07:06:57.408Z,5.53
2023-02-26T07:09:45.857Z,3.20
2023-02-26T07:12:31.940Z,1.57
2023-02-26T07:15:18.243Z,0.53
2023-02-26T07:18:04.641Z,3.40
2023-02-26T07:20:50.842Z,1.30
2023-02-26T07:23:36.667Z,6.23
2023-02-26T07:26:22.456Z,6.53
2023-02-26T07:29:08.389Z,1.50
2023-02-26T07:31:54.512Z,2.00
2023-02-26T07:34:40.045Z,4.13
2023-02-26T07:37:26.923Z,1.13
2023-02-26T07:40:13.243Z,1.07
2023-02-26T07:42:59.053Z,0.23
2023-02-26T07:45:44.744Z,0.40
2023-02-26T07:48:30.432Z,1.80
2023-02-26T07:51:15.813Z,0.43
2023-02-26T07:54:01.491Z,0.20
2023-02-26T07:56:47.498Z,0.67
2023-02-26T07:59:33.527Z,1.53
2023-02-26T08:02:19.327Z,1.20
2023-02-26T08:05:05.663Z,1.60
2023-02-26T08:07:51.885Z,0.20
2023-02-26T08:10:37.780Z,0.93
2023-02-26T08:13:25.142Z,0.80
2023-02-26T13:46:16.539Z,1.10
2023-02-26T14:27:27.398Z,1.10
